sensor_id;sensor_type;location;lat;lon;timestamp;P1;durP1;ratioP1;P2;durP2;ratioP2
67146;SDS011;70072;52.036;5.558;2024-01-07T00:01:58;2.10;;;1.40;;
67146;SDS011;70072;52.036;5.558;2024-01-07T00:04:23;1.83;;;1.40;;
67146;SDS011;70072;52.036;5.558;2024-01-07T00:06:49;2.15;;;1.55;;
67146;SDS011;70072;52.036;5.558;2024-01-07T00:09:15;1.83;;;1.55;;
67146;SDS011;70072;52.036;5.558;2024-01-07T00:11:41;1.85;;;1.38;;
67146;SDS011;70072;52.036;5.558;2024-01-07T00:14:07;4.70;;;1.75;;
67146;SDS011;70072;52.036;5.558;2024-01-07T00:16:34;1.75;;;1.65;;
67146;SDS011;70072;52.036;5.558;2024-01-07T00:19:02;2.28;;;1.40;;
67146;SDS011;70072;52.036;5.558;2024-01-07T00:21:28;2.33;;;1.60;;
67146;SDS011;70072;52.036;5.558;2024-01-07T00:23:53;2.47;;;1.63;;
67146;SDS011;70072;52.036;5.558;2024-01-07T00:26:21;3.38;;;1.40;;
67146;SDS011;70072;52.036;5.558;2024-01-07T00:28:47;1.90;;;1.27;;
67146;SDS011;70072;52.036;5.558;2024-01-07T00:31:12;1.83;;;1.50;;
67146;SDS011;70072;52.036;5.558;2024-01-07T00:33:38;2.03;;;1.30;;
67146;SDS011;70072;52.036;5.558;2024-01-07T00:36:04;4.00;;;1.40;;
67146;SDS011;70072;52.036;5.558;2024-01-07T00:38:30;1.38;;;1.27;;
67146;SDS011;70072;52.036;5.558;2024-01-07T00:40:55;2.28;;;1.40;;
67146;SDS011;70072;52.036;5.558;2024-01-07T00:43:21;3.08;;;1.42;;
67146;SDS011;70072;52.036;5.558;2024-01-07T00:45:46;3.25;;;1.80;;
67146;SDS011;70072;52.036;5.558;2024-01-07T00:48:13;2.72;;;1.38;;
67146;SDS011;70072;52.036;5.558;2024-01-07T00:50:39;3.42;;;1.50;;
67146;SDS011;70072;52.036;5.558;2024-01-07T00:53:05;1.75;;;1.42;;
67146;SDS011;70072;52.036;5.558;2024-01-07T00:55:31;2.38;;;1.70;;
67146;SDS011;70072;52.036;5.558;2024-01-07T00:57:56;2.00;;;1.30;;
67146;SDS011;70072;52.036;5.558;2024-01-07T01:00:22;2.30;;;1.40;;
67146;SDS011;70072;52.036;5.558;2024-01-07T01:02:51;1.30;;;1.15;;
67146;SDS011;70072;52.036;5.558;2024-01-07T01:05:16;1.88;;;1.65;;
67146;SDS011;70072;52.036;5.558;2024-01-07T01:07:42;1.77;;;1.40;;
67146;SDS011;70072;52.036;5.558;2024-01-07T01:10:08;1.50;;;1.33;;
67146;SDS011;70072;52.036;5.558;2024-01-07T01:12:36;1.75;;;1.40;;
67146;SDS011;70072;52.036;5.558;2024-01-07T01:15:02;3.38;;;1.70;;
67146;SDS011;70072;52.036;5.558;2024-01-07T01:17:28;2.10;;;1.60;;
67146;SDS011;70072;52.036;5.558;2024-01-07T01:19:54;2.15;;;1.58;;
67146;SDS011;70072;52.036;5.558;2024-01-07T01:22:22;2.58;;;1.63;;
67146;SDS011;70072;52.036;5.558;2024-01-07T01:24:50;2.70;;;1.70;;
67146;SDS011;70072;52.036;5.558;2024-01-07T01:27:16;3.22;;;1.42;;
67146;SDS011;70072;52.036;5.558;2024-01-07T01:29:42;1.80;;;1.60;;
67146;SDS011;70072;52.036;5.558;2024-01-07T01:32:10;2.30;;;1.75;;
67146;SDS011;70072;52.036;5.558;2024-01-07T01:34:36;4.22;;;1.40;;
67146;SDS011;70072;52.036;5.558;2024-01-07T01:37:04;3.28;;;1.70;;
67146;SDS011;70072;52.036;5.558;2024-01-07T01:39:30;2.72;;;1.80;;
67146;SDS011;70072;52.036;5.558;2024-01-07T01:41:55;1.90;;;1.63;;
67146;SDS011;70072;52.036;5.558;2024-01-07T01:44:23;6.25;;;1.77;;
67146;SDS011;70072;52.036;5.558;2024-01-07T01:46:49;3.90;;;1.67;;
67146;SDS011;70072;52.036;5.558;2024-01-07T01:49:15;2.55;;;1.85;;
67146;SDS011;70072;52.036;5.558;2024-01-07T01:51:50;2.15;;;1.60;;
67146;SDS011;70072;52.036;5.558;2024-01-07T01:54:19;2.00;;;1.60;;
67146;SDS011;70072;52.036;5.558;2024-01-07T01:56:50;2.92;;;1.70;;
67146;SDS011;70072;52.036;5.558;2024-01-07T01:59:19;2.67;;;1.60;;
67146;SDS011;70072;52.036;5.558;2024-01-07T02:01:45;2.25;;;1.63;;
67146;SDS011;70072;52.036;5.558;2024-01-07T02:04:12;1.65;;;1.55;;
67146;SDS011;70072;52.036;5.558;2024-01-07T02:06:40;2.10;;;1.65;;
67146;SDS011;70072;52.036;5.558;2024-01-07T02:09:10;2.15;;;1.60;;
67146;SDS011;70072;52.036;5.558;2024-01-07T02:11:38;1.98;;;1.67;;
67146;SDS011;70072;52.036;5.558;2024-01-07T02:14:03;2.42;;;1.60;;
67146;SDS011;70072;52.036;5.558;2024-01-07T02:16:29;2.33;;;1.48;;
67146;SDS011;70072;52.036;5.558;2024-01-07T02:18:57;1.92;;;1.60;;
67146;SDS011;70072;52.036;5.558;2024-01-07T02:21:22;2.25;;;1.70;;
67146;SDS011;70072;52.036;5.558;2024-01-07T02:23:48;2.25;;;1.60;;
67146;SDS011;70072;52.036;5.558;2024-01-07T02:26:14;2.85;;;1.77;;
67146;SDS011;70072;52.036;5.558;2024-01-07T02:28:43;2.63;;;1.73;;
67146;SDS011;70072;52.036;5.558;2024-01-07T02:31:11;3.30;;;1.80;;
67146;SDS011;70072;52.036;5.558;2024-01-07T02:33:39;1.58;;;1.35;;
67146;SDS011;70072;52.036;5.558;2024-01-07T02:36:04;2.25;;;1.98;;
67146;SDS011;70072;52.036;5.558;2024-01-07T02:38:30;2.17;;;1.92;;
67146;SDS011;70072;52.036;5.558;2024-01-07T02:40:56;2.53;;;1.70;;
67146;SDS011;70072;52.036;5.558;2024-01-07T02:43:23;2.63;;;1.83;;
67146;SDS011;70072;52.036;5.558;2024-01-07T02:45:49;2.10;;;1.85;;
67146;SDS011;70072;52.036;5.558;2024-01-07T02:48:17;1.75;;;1.52;;
67146;SDS011;70072;52.036;5.558;2024-01-07T02:50:43;2.20;;;1.88;;
67146;SDS011;70072;52.036;5.558;2024-01-07T02:53:09;2.33;;;1.63;;
67146;SDS011;70072;52.036;5.558;2024-01-07T02:55:39;2.80;;;1.80;;
67146;SDS011;70072;52.036;5.558;2024-01-07T02:58:07;6.82;;;1.83;;
67146;SDS011;70072;52.036;5.558;2024-01-07T03:00:32;3.45;;;1.70;;
67146;SDS011;70072;52.036;5.558;2024-01-07T03:02:58;2.65;;;1.95;;
67146;SDS011;70072;52.036;5.558;2024-01-07T03:05:23;3.17;;;2.00;;
67146;SDS011;70072;52.036;5.558;2024-01-07T03:07:49;1.70;;;1.60;;
67146;SDS011;70072;52.036;5.558;2024-01-07T03:10:15;2.88;;;1.98;;
67146;SDS011;70072;52.036;5.558;2024-01-07T03:12:43;2.88;;;1.88;;
67146;SDS011;70072;52.036;5.558;2024-01-07T03:15:09;5.40;;;1.80;;
67146;SDS011;70072;52.036;5.558;2024-01-07T03:17:34;2.15;;;1.90;;
67146;SDS011;70072;52.036;5.558;2024-01-07T03:20:00;3.20;;;1.80;;
67146;SDS011;70072;52.036;5.558;2024-01-07T03:22:26;2.20;;;1.70;;
67146;SDS011;70072;52.036;5.558;2024-01-07T03:24:52;3.50;;;1.65;;
67146;SDS011;70072;52.036;5.558;2024-01-07T03:27:17;1.88;;;1.70;;
67146;SDS011;70072;52.036;5.558;2024-01-07T03:29:45;3.60;;;1.65;;
67146;SDS011;70072;52.036;5.558;2024-01-07T03:32:11;2.72;;;1.80;;
67146;SDS011;70072;52.036;5.558;2024-01-07T03:34:38;1.92;;;1.60;;
67146;SDS011;70072;52.036;5.558;2024-01-07T03:37:04;2.35;;;1.88;;
67146;SDS011;70072;52.036;5.558;2024-01-07T03:39:32;3.05;;;2.20;;
67146;SDS011;70072;52.036;5.558;2024-01-07T03:42:02;2.88;;;1.98;;
67146;SDS011;70072;52.036;5.558;2024-01-07T03:44:36;6.82;;;2.00;;
67146;SDS011;70072;52.036;5.558;2024-01-07T03:47:02;3.22;;;2.20;;
67146;SDS011;70072;52.036;5.558;2024-01-07T03:49:27;2.80;;;1.90;;
67146;SDS011;70072;52.036;5.558;2024-01-07T03:51:53;1.88;;;1.48;;
67146;SDS011;70072;52.036;5.558;2024-01-07T03:54:18;2.80;;;1.83;;
67146;SDS011;70072;52.036;5.558;2024-01-07T03:56:44;2.38;;;1.65;;
67146;SDS011;70072;52.036;5.558;2024-01-07T03:59:09;2.55;;;1.80;;
67146;SDS011;70072;52.036;5.558;2024-01-07T04:01:35;1.67;;;1.58;;
67146;SDS011;70072;52.036;5.558;2024-01-07T04:04:01;3.15;;;1.80;;
67146;SDS011;70072;52.036;5.558;2024-01-07T04:06:26;1.92;;;1.65;;
67146;SDS011;70072;52.036;5.558;2024-01-07T04:08:54;2.85;;;1.90;;
67146;SDS011;70072;52.036;5.558;2024-01-07T04:11:20;2.08;;;1.65;;
67146;SDS011;70072;52.036;5.558;2024-01-07T04:13:45;3.53;;;1.88;;
67146;SDS011;70072;52.036;5.558;2024-01-07T04:16:20;1.80;;;1.48;;
67146;SDS011;70072;52.036;5.558;2024-01-07T04:18:46;2.60;;;1.80;;
67146;SDS011;70072;52.036;5.558;2024-01-07T04:21:12;3.67;;;1.98;;
67146;SDS011;70072;52.036;5.558;2024-01-07T04:23:38;3.63;;;1.60;;
67146;SDS011;70072;52.036;5.558;2024-01-07T04:26:08;2.85;;;1.90;;
67146;SDS011;70072;52.036;5.558;2024-01-07T04:28:34;2.55;;;1.80;;
67146;SDS011;70072;52.036;5.558;2024-01-07T04:31:00;1.88;;;1.50;;
67146;SDS011;70072;52.036;5.558;2024-01-07T04:33:28;2.97;;;1.88;;
67146;SDS011;70072;52.036;5.558;2024-01-07T04:35:56;2.30;;;1.67;;
67146;SDS011;70072;52.036;5.558;2024-01-07T04:38:23;2.53;;;1.80;;
67146;SDS011;70072;52.036;5.558;2024-01-07T04:40:50;1.85;;;1.55;;
67146;SDS011;70072;52.036;5.558;2024-01-07T04:43:16;3.75;;;1.60;;
67146;SDS011;70072;52.036;5.558;2024-01-07T04:45:45;3.75;;;2.00;;
67146;SDS011;70072;52.036;5.558;2024-01-07T04:48:12;2.28;;;1.70;;
67146;SDS011;70072;52.036;5.558;2024-01-07T04:50:39;2.03;;;1.83;;
67146;SDS011;70072;52.036;5.558;2024-01-07T04:53:08;2.20;;;1.73;;
67146;SDS011;70072;52.036;5.558;2024-01-07T04:55:34;3.15;;;2.10;;
67146;SDS011;70072;52.036;5.558;2024-01-07T04:58:02;1.88;;;1.65;;
67146;SDS011;70072;52.036;5.558;2024-01-07T05:00:29;2.20;;;1.80;;
67146;SDS011;70072;52.036;5.558;2024-01-07T05:02:55;3.00;;;1.85;;
67146;SDS011;70072;52.036;5.558;2024-01-07T05:05:21;2.40;;;1.60;;
67146;SDS011;70072;52.036;5.558;2024-01-07T05:07:46;2.10;;;1.83;;
67146;SDS011;70072;52.036;5.558;2024-01-07T05:10:12;4.20;;;1.77;;
67146;SDS011;70072;52.036;5.558;2024-01-07T05:12:40;2.53;;;1.58;;
67146;SDS011;70072;52.036;5.558;2024-01-07T05:15:06;3.58;;;1.83;;
67146;SDS011;70072;52.036;5.558;2024-01-07T05:17:34;4.47;;;1.67;;
67146;SDS011;70072;52.036;5.558;2024-01-07T05:20:00;2.47;;;1.70;;
67146;SDS011;70072;52.036;5.558;2024-01-07T05:22:25;2.42;;;1.90;;
67146;SDS011;70072;52.036;5.558;2024-01-07T05:24:51;2.25;;;1.67;;
67146;SDS011;70072;52.036;5.558;2024-01-07T05:27:19;2.17;;;1.92;;
67146;SDS011;70072;52.036;5.558;2024-01-07T05:29:45;1.80;;;1.45;;
67146;SDS011;70072;52.036;5.558;2024-01-07T05:32:14;3.45;;;1.65;;
67146;SDS011;70072;52.036;5.558;2024-01-07T05:34:40;2.58;;;1.67;;
67146;SDS011;70072;52.036;5.558;2024-01-07T05:37:05;2.50;;;1.60;;
67146;SDS011;70072;52.036;5.558;2024-01-07T05:39:31;2.17;;;1.55;;
67146;SDS011;70072;52.036;5.558;2024-01-07T05:41:59;2.28;;;1.90;;
67146;SDS011;70072;52.036;5.558;2024-01-07T05:44:24;2.05;;;1.60;;
67146;SDS011;70072;52.036;5.558;2024-01-07T05:46:52;2.03;;;1.73;;
67146;SDS011;70072;52.036;5.558;2024-01-07T05:49:18;1.83;;;1.63;;
67146;SDS011;70072;52.036;5.558;2024-01-07T05:51:43;1.73;;;1.50;;
67146;SDS011;70072;52.036;5.558;2024-01-07T05:54:09;2.67;;;1.25;;
67146;SDS011;70072;52.036;5.558;2024-01-07T05:56:38;1.70;;;1.60;;
67146;SDS011;70072;52.036;5.558;2024-01-07T05:59:05;2.38;;;1.65;;
67146;SDS011;70072;52.036;5.558;2024-01-07T06:01:33;1.60;;;1.50;;
67146;SDS011;70072;52.036;5.558;2024-01-07T06:04:00;2.30;;;1.60;;
67146;SDS011;70072;52.036;5.558;2024-01-07T06:06:25;1.83;;;1.65;;
67146;SDS011;70072;52.036;5.558;2024-01-07T06:08:53;2.38;;;1.70;;
67146;SDS011;70072;52.036;5.558;2024-01-07T06:11:19;1.65;;;1.40;;
67146;SDS011;70072;52.036;5.558;2024-01-07T06:13:45;2.20;;;1.60;;
67146;SDS011;70072;52.036;5.558;2024-01-07T06:16:11;2.00;;;1.58;;
67146;SDS011;70072;52.036;5.558;2024-01-07T06:18:37;1.75;;;1.50;;
67146;SDS011;70072;52.036;5.558;2024-01-07T06:21:03;2.65;;;1.63;;
67146;SDS011;70072;52.036;5.558;2024-01-07T06:23:31;5.35;;;1.52;;
67146;SDS011;70072;52.036;5.558;2024-01-07T06:25:57;2.20;;;1.27;;
67146;SDS011;70072;52.036;5.558;2024-01-07T06:28:23;1.50;;;1.30;;
67146;SDS011;70072;52.036;5.558;2024-01-07T06:30:49;1.42;;;1.33;;
67146;SDS011;70072;52.036;5.558;2024-01-07T06:33:14;1.55;;;1.30;;
67146;SDS011;70072;52.036;5.558;2024-01-07T06:35:40;2.83;;;1.40;;
67146;SDS011;70072;52.036;5.558;2024-01-07T06:38:10;2.42;;;1.50;;
67146;SDS011;70072;52.036;5.558;2024-01-07T06:40:36;2.10;;;1.60;;
67146;SDS011;70072;52.036;5.558;2024-01-07T06:43:01;2.20;;;1.70;;
67146;SDS011;70072;52.036;5.558;2024-01-07T06:45:27;1.60;;;1.35;;
67146;SDS011;70072;52.036;5.558;2024-01-07T06:47:55;1.55;;;1.38;;
67146;SDS011;70072;52.036;5.558;2024-01-07T06:50:21;2.28;;;1.10;;
67146;SDS011;70072;52.036;5.558;2024-01-07T06:52:49;6.18;;;1.50;;
67146;SDS011;70072;52.036;5.558;2024-01-07T06:55:14;1.30;;;1.20;;
67146;SDS011;70072;52.036;5.558;2024-01-07T06:57:40;1.33;;;1.23;;
67146;SDS011;70072;52.036;5.558;2024-01-07T07:00:06;1.73;;;1.30;;
67146;SDS011;70072;52.036;5.558;2024-01-07T07:02:34;1.48;;;1.38;;
67146;SDS011;70072;52.036;5.558;2024-01-07T07:05:00;2.05;;;1.25;;
67146;SDS011;70072;52.036;5.558;2024-01-07T07:07:25;2.00;;;1.40;;
67146;SDS011;70072;52.036;5.558;2024-01-07T07:09:51;1.80;;;1.40;;
67146;SDS011;70072;52.036;5.558;2024-01-07T07:12:17;1.75;;;1.30;;
67146;SDS011;70072;52.036;5.558;2024-01-07T07:14:43;3.42;;;1.58;;
67146;SDS011;70072;52.036;5.558;2024-01-07T07:17:08;1.30;;;1.20;;
67146;SDS011;70072;52.036;5.558;2024-01-07T07:19:34;2.47;;;1.42;;
67146;SDS011;70072;52.036;5.558;2024-01-07T07:22:00;1.90;;;1.52;;
67146;SDS011;70072;52.036;5.558;2024-01-07T07:24:28;3.17;;;1.42;;
67146;SDS011;70072;52.036;5.558;2024-01-07T07:26:53;1.75;;;1.27;;
67146;SDS011;70072;52.036;5.558;2024-01-07T07:29:19;1.48;;;1.30;;
67146;SDS011;70072;52.036;5.558;2024-01-07T07:31:47;2.55;;;1.30;;
67146;SDS011;70072;52.036;5.558;2024-01-07T07:34:13;2.05;;;1.40;;
67146;SDS011;70072;52.036;5.558;2024-01-07T07:36:39;2.22;;;1.35;;
67146;SDS011;70072;52.036;5.558;2024-01-07T07:39:06;2.03;;;1.30;;
67146;SDS011;70072;52.036;5.558;2024-01-07T07:41:34;2.55;;;1.30;;
67146;SDS011;70072;52.036;5.558;2024-01-07T07:43:59;1.45;;;1.35;;
67146;SDS011;70072;52.036;5.558;2024-01-07T07:46:27;1.55;;;1.00;;
67146;SDS011;70072;52.036;5.558;2024-01-07T07:48:53;2.17;;;1.42;;
67146;SDS011;70072;52.036;5.558;2024-01-07T07:51:19;1.63;;;1.30;;
67146;SDS011;70072;52.036;5.558;2024-01-07T07:53:45;1.33;;;1.10;;
67146;SDS011;70072;52.036;5.558;2024-01-07T07:56:11;1.65;;;1.40;;
67146;SDS011;70072;52.036;5.558;2024-01-07T07:58:36;1.35;;;1.25;;
67146;SDS011;70072;52.036;5.558;2024-01-07T08:01:04;2.33;;;1.38;;
67146;SDS011;70072;52.036;5.558;2024-01-07T08:03:32;1.85;;;1.38;;
67146;SDS011;70072;52.036;5.558;2024-01-07T08:05:57;1.40;;;1.30;;
67146;SDS011;70072;52.036;5.558;2024-01-07T08:08:23;1.67;;;1.23;;
67146;SDS011;70072;52.036;5.558;2024-01-07T08:10:49;2.75;;;1.40;;
67146;SDS011;70072;52.036;5.558;2024-01-07T08:13:14;1.23;;;1.13;;
67146;SDS011;70072;52.036;5.558;2024-01-07T08:15:40;1.45;;;1.35;;
67146;SDS011;70072;52.036;5.558;2024-01-07T08:18:08;1.48;;;1.10;;
67146;SDS011;70072;52.036;5.558;2024-01-07T08:20:34;1.95;;;1.02;;
67146;SDS011;70072;52.036;5.558;2024-01-07T08:23:02;1.38;;;1.27;;
67146;SDS011;70072;52.036;5.558;2024-01-07T08:25:27;2.20;;;1.30;;
67146;SDS011;70072;52.036;5.558;2024-01-07T08:27:55;1.75;;;1.33;;
67146;SDS011;70072;52.036;5.558;2024-01-07T08:30:21;1.30;;;1.20;;
67146;SDS011;70072;52.036;5.558;2024-01-07T08:32:48;1.88;;;1.17;;
67146;SDS011;70072;52.036;5.558;2024-01-07T08:35:14;1.40;;;1.30;;
67146;SDS011;70072;52.036;5.558;2024-01-07T08:37:40;1.52;;;1.42;;
67146;SDS011;70072;52.036;5.558;2024-01-07T08:40:05;2.88;;;1.10;;
67146;SDS011;70072;52.036;5.558;2024-01-07T08:42:34;2.50;;;1.40;;
67146;SDS011;70072;52.036;5.558;2024-01-07T08:45:02;1.08;;;1.02;;
67146;SDS011;70072;52.036;5.558;2024-01-07T08:47:29;7.90;;;1.15;;
67146;SDS011;70072;52.036;5.558;2024-01-07T08:49:58;1.60;;;1.20;;
67146;SDS011;70072;52.036;5.558;2024-01-07T08:52:24;1.20;;;1.00;;
67146;SDS011;70072;52.036;5.558;2024-01-07T08:54:50;2.58;;;1.65;;
67146;SDS011;70072;52.036;5.558;2024-01-07T08:57:15;1.52;;;1.20;;
67146;SDS011;70072;52.036;5.558;2024-01-07T08:59:41;1.08;;;0.98;;
67146;SDS011;70072;52.036;5.558;2024-01-07T09:02:07;1.75;;;1.08;;
67146;SDS011;70072;52.036;5.558;2024-01-07T09:04:32;1.17;;;1.05;;
67146;SDS011;70072;52.036;5.558;2024-01-07T09:06:58;1.92;;;1.10;;
67146;SDS011;70072;52.036;5.558;2024-01-07T09:09:24;1.20;;;1.00;;
67146;SDS011;70072;52.036;5.558;2024-01-07T09:11:52;1.27;;;1.17;;
67146;SDS011;70072;52.036;5.558;2024-01-07T09:14:21;1.50;;;1.10;;
67146;SDS011;70072;52.036;5.558;2024-01-07T09:19:32;1.50;;;1.05;;
67146;SDS011;70072;52.036;5.558;2024-01-07T09:21:57;1.10;;;1.00;;
67146;SDS011;70072;52.036;5.558;2024-01-07T09:24:23;1.48;;;1.08;;
67146;SDS011;70072;52.036;5.558;2024-01-07T09:26:49;1.95;;;1.00;;
67146;SDS011;70072;52.036;5.558;2024-01-07T09:29:17;1.65;;;1.20;;
67146;SDS011;70072;52.036;5.558;2024-01-07T09:31:45;1.70;;;1.15;;
67146;SDS011;70072;52.036;5.558;2024-01-07T09:34:11;1.30;;;1.02;;
67146;SDS011;70072;52.036;5.558;2024-01-07T09:36:36;3.03;;;1.20;;
67146;SDS011;70072;52.036;5.558;2024-01-07T09:39:02;3.20;;;1.25;;
67146;SDS011;70072;52.036;5.558;2024-01-07T09:41:30;7.38;;;1.30;;
67146;SDS011;70072;52.036;5.558;2024-01-07T09:43:59;2.83;;;1.10;;
67146;SDS011;70072;52.036;5.558;2024-01-07T09:46:24;1.67;;;1.13;;
67146;SDS011;70072;52.036;5.558;2024-01-07T09:48:53;2.85;;;1.27;;
67146;SDS011;70072;52.036;5.558;2024-01-07T09:51:22;2.67;;;1.20;;
67146;SDS011;70072;52.036;5.558;2024-01-07T09:53:48;1.35;;;1.05;;
67146;SDS011;70072;52.036;5.558;2024-01-07T09:58:50;7.60;;;1.20;;
67146;SDS011;70072;52.036;5.558;2024-01-07T10:01:19;2.47;;;1.40;;
67146;SDS011;70072;52.036;5.558;2024-01-07T10:03:45;3.15;;;1.40;;
67146;SDS011;70072;52.036;5.558;2024-01-07T10:06:11;5.35;;;1.23;;
67146;SDS011;70072;52.036;5.558;2024-01-07T10:08:38;5.18;;;1.40;;
67146;SDS011;70072;52.036;5.558;2024-01-07T10:11:04;8.55;;;1.50;;
67146;SDS011;70072;52.036;5.558;2024-01-07T10:13:30;1.52;;;1.20;;
67146;SDS011;70072;52.036;5.558;2024-01-07T10:15:56;1.73;;;1.13;;
67146;SDS011;70072;52.036;5.558;2024-01-07T10:18:25;5.82;;;1.73;;
67146;SDS011;70072;52.036;5.558;2024-01-07T10:20:56;5.30;;;1.67;;
67146;SDS011;70072;52.036;5.558;2024-01-07T10:23:29;7.65;;;1.77;;
67146;SDS011;70072;52.036;5.558;2024-01-07T10:25:54;10.45;;;2.10;;
67146;SDS011;70072;52.036;5.558;2024-01-07T10:28:22;12.02;;;2.10;;
67146;SDS011;70072;52.036;5.558;2024-01-07T10:30:51;10.25;;;1.70;;
67146;SDS011;70072;52.036;5.558;2024-01-07T10:33:19;12.20;;;1.63;;
67146;SDS011;70072;52.036;5.558;2024-01-07T10:35:52;10.60;;;1.83;;
67146;SDS011;70072;52.036;5.558;2024-01-07T10:38:26;5.95;;;1.80;;
67146;SDS011;70072;52.036;5.558;2024-01-07T10:40:52;12.68;;;1.83;;
67146;SDS011;70072;52.036;5.558;2024-01-07T10:43:20;12.50;;;1.70;;
67146;SDS011;70072;52.036;5.558;2024-01-07T10:45:48;3.45;;;1.60;;
67146;SDS011;70072;52.036;5.558;2024-01-07T10:48:16;7.90;;;1.88;;
67146;SDS011;70072;52.036;5.558;2024-01-07T10:50:45;5.70;;;1.60;;
67146;SDS011;70072;52.036;5.558;2024-01-07T10:53:17;6.68;;;1.73;;
67146;SDS011;70072;52.036;5.558;2024-01-07T10:56:03;2.85;;;1.48;;
67146;SDS011;70072;52.036;5.558;2024-01-07T10:58:32;5.00;;;1.50;;
67146;SDS011;70072;52.036;5.558;2024-01-07T11:00:59;6.35;;;1.77;;
67146;SDS011;70072;52.036;5.558;2024-01-07T11:06:05;2.22;;;1.30;;
67146;SDS011;70072;52.036;5.558;2024-01-07T11:08:46;3.60;;;1.75;;
67146;SDS011;70072;52.036;5.558;2024-01-07T11:11:25;3.15;;;1.40;;
67146;SDS011;70072;52.036;5.558;2024-01-07T11:13:52;2.75;;;1.30;;
67146;SDS011;70072;52.036;5.558;2024-01-07T11:19:06;11.32;;;1.50;;
67146;SDS011;70072;52.036;5.558;2024-01-07T11:21:32;5.90;;;1.38;;
67146;SDS011;70072;52.036;5.558;2024-01-07T11:23:58;2.72;;;1.33;;
67146;SDS011;70072;52.036;5.558;2024-01-07T11:26:23;3.42;;;1.30;;
67146;SDS011;70072;52.036;5.558;2024-01-07T11:34:06;2.83;;;1.00;;
67146;SDS011;70072;52.036;5.558;2024-01-07T11:36:32;5.60;;;1.35;;
67146;SDS011;70072;52.036;5.558;2024-01-07T11:39:01;1.73;;;1.20;;
67146;SDS011;70072;52.036;5.558;2024-01-07T11:41:28;6.22;;;1.13;;
67146;SDS011;70072;52.036;5.558;2024-01-07T11:43:59;2.67;;;1.08;;
67146;SDS011;70072;52.036;5.558;2024-01-07T11:46:25;10.73;;;1.33;;
67146;SDS011;70072;52.036;5.558;2024-01-07T11:48:55;1.30;;;1.00;;
67146;SDS011;70072;52.036;5.558;2024-01-07T11:51:30;2.78;;;1.10;;
67146;SDS011;70072;52.036;5.558;2024-01-07T11:53:56;3.42;;;1.35;;
67146;SDS011;70072;52.036;5.558;2024-01-07T11:56:24;2.95;;;1.10;;
67146;SDS011;70072;52.036;5.558;2024-01-07T11:58:49;3.15;;;1.05;;
67146;SDS011;70072;52.036;5.558;2024-01-07T12:01:15;1.73;;;1.00;;
67146;SDS011;70072;52.036;5.558;2024-01-07T12:03:43;2.58;;;1.25;;
67146;SDS011;70072;52.036;5.558;2024-01-07T12:06:09;1.70;;;1.20;;
67146;SDS011;70072;52.036;5.558;2024-01-07T12:08:41;5.30;;;1.13;;
67146;SDS011;70072;52.036;5.558;2024-01-07T12:11:08;3.58;;;1.20;;
67146;SDS011;70072;52.036;5.558;2024-01-07T12:13:36;1.65;;;1.20;;
67146;SDS011;70072;52.036;5.558;2024-01-07T12:16:02;3.00;;;0.90;;
67146;SDS011;70072;52.036;5.558;2024-01-07T12:18:29;3.38;;;0.95;;
67146;SDS011;70072;52.036;5.558;2024-01-07T12:20:58;4.55;;;0.80;;
67146;SDS011;70072;52.036;5.558;2024-01-07T12:23:27;1.02;;;0.90;;
67146;SDS011;70072;52.036;5.558;2024-01-07T12:25:53;0.85;;;0.80;;
67146;SDS011;70072;52.036;5.558;2024-01-07T12:28:20;7.03;;;0.98;;
67146;SDS011;70072;52.036;5.558;2024-01-07T12:30:49;2.85;;;1.00;;
67146;SDS011;70072;52.036;5.558;2024-01-07T12:33:21;3.20;;;1.00;;
67146;SDS011;70072;52.036;5.558;2024-01-07T12:35:47;2.75;;;1.08;;
67146;SDS011;70072;52.036;5.558;2024-01-07T12:38:13;3.35;;;0.90;;
67146;SDS011;70072;52.036;5.558;2024-01-07T12:40:39;1.48;;;0.90;;
67146;SDS011;70072;52.036;5.558;2024-01-07T12:43:05;4.40;;;0.88;;
67146;SDS011;70072;52.036;5.558;2024-01-07T12:45:32;1.98;;;0.90;;
67146;SDS011;70072;52.036;5.558;2024-01-07T12:48:03;2.15;;;0.82;;
67146;SDS011;70072;52.036;5.558;2024-01-07T12:50:29;2.55;;;0.75;;
67146;SDS011;70072;52.036;5.558;2024-01-07T12:52:57;3.13;;;0.80;;
67146;SDS011;70072;52.036;5.558;2024-01-07T12:55:24;3.78;;;1.10;;
67146;SDS011;70072;52.036;5.558;2024-01-07T12:57:52;1.63;;;0.70;;
67146;SDS011;70072;52.036;5.558;2024-01-07T13:00:20;0.80;;;0.80;;
67146;SDS011;70072;52.036;5.558;2024-01-07T13:02:46;1.52;;;0.70;;
67146;SDS011;70072;52.036;5.558;2024-01-07T13:05:12;2.10;;;0.88;;
67146;SDS011;70072;52.036;5.558;2024-01-07T13:07:38;1.52;;;0.70;;
67146;SDS011;70072;52.036;5.558;2024-01-07T13:10:04;2.55;;;0.80;;
67146;SDS011;70072;52.036;5.558;2024-01-07T13:12:30;1.10;;;0.70;;
67146;SDS011;70072;52.036;5.558;2024-01-07T13:14:55;1.30;;;0.77;;
67146;SDS011;70072;52.036;5.558;2024-01-07T13:17:21;1.52;;;0.80;;
67146;SDS011;70072;52.036;5.558;2024-01-07T13:19:46;2.20;;;0.70;;
67146;SDS011;70072;52.036;5.558;2024-01-07T13:22:12;0.77;;;0.60;;
67146;SDS011;70072;52.036;5.558;2024-01-07T13:24:38;2.28;;;0.88;;
67146;SDS011;70072;52.036;5.558;2024-01-07T13:27:05;1.00;;;0.60;;
67146;SDS011;70072;52.036;5.558;2024-01-07T13:29:30;0.88;;;0.60;;
67146;SDS011;70072;52.036;5.558;2024-01-07T13:31:56;1.27;;;0.95;;
67146;SDS011;70072;52.036;5.558;2024-01-07T13:34:22;6.85;;;0.80;;
67146;SDS011;70072;52.036;5.558;2024-01-07T13:36:48;2.85;;;0.57;;
67146;SDS011;70072;52.036;5.558;2024-01-07T13:39:13;0.75;;;0.60;;
67146;SDS011;70072;52.036;5.558;2024-01-07T13:41:41;0.77;;;0.75;;
67146;SDS011;70072;52.036;5.558;2024-01-07T13:44:07;5.35;;;0.60;;
67146;SDS011;70072;52.036;5.558;2024-01-07T13:46:44;0.65;;;0.63;;
67146;SDS011;70072;52.036;5.558;2024-01-07T13:49:11;1.90;;;0.52;;
67146;SDS011;70072;52.036;5.558;2024-01-07T13:51:41;0.50;;;0.50;;
67146;SDS011;70072;52.036;5.558;2024-01-07T13:54:07;0.80;;;0.57;;
67146;SDS011;70072;52.036;5.558;2024-01-07T13:56:42;1.52;;;0.73;;
67146;SDS011;70072;52.036;5.558;2024-01-07T13:59:09;1.02;;;0.60;;
67146;SDS011;70072;52.036;5.558;2024-01-07T14:01:35;0.73;;;0.55;;
67146;SDS011;70072;52.036;5.558;2024-01-07T14:04:02;0.52;;;0.50;;
67146;SDS011;70072;52.036;5.558;2024-01-07T14:06:28;1.13;;;0.60;;
67146;SDS011;70072;52.036;5.558;2024-01-07T14:08:53;0.95;;;0.57;;
67146;SDS011;70072;52.036;5.558;2024-01-07T14:11:19;1.08;;;0.60;;
67146;SDS011;70072;52.036;5.558;2024-01-07T14:13:45;3.42;;;0.57;;
67146;SDS011;70072;52.036;5.558;2024-01-07T14:16:13;0.80;;;0.40;;
67146;SDS011;70072;52.036;5.558;2024-01-07T14:18:39;0.70;;;0.70;;
67146;SDS011;70072;52.036;5.558;2024-01-07T14:21:05;1.55;;;0.50;;
67146;SDS011;70072;52.036;5.558;2024-01-07T14:23:31;3.88;;;0.50;;
67146;SDS011;70072;52.036;5.558;2024-01-07T14:25:58;2.33;;;0.65;;
67146;SDS011;70072;52.036;5.558;2024-01-07T14:28:24;0.95;;;0.60;;
67146;SDS011;70072;52.036;5.558;2024-01-07T14:30:50;2.28;;;0.50;;
67146;SDS011;70072;52.036;5.558;2024-01-07T14:33:16;0.70;;;0.40;;
67146;SDS011;70072;52.036;5.558;2024-01-07T14:35:41;1.20;;;0.60;;
67146;SDS011;70072;52.036;5.558;2024-01-07T14:38:07;2.65;;;0.60;;
67146;SDS011;70072;52.036;5.558;2024-01-07T14:40:33;4.78;;;0.50;;
67146;SDS011;70072;52.036;5.558;2024-01-07T14:42:58;3.95;;;0.60;;
67146;SDS011;70072;52.036;5.558;2024-01-07T14:45:26;1.25;;;0.50;;
67146;SDS011;70072;52.036;5.558;2024-01-07T14:47:57;0.80;;;0.47;;
67146;SDS011;70072;52.036;5.558;2024-01-07T14:50:22;0.57;;;0.40;;
67146;SDS011;70072;52.036;5.558;2024-01-07T14:52:48;1.00;;;0.40;;
67146;SDS011;70072;52.036;5.558;2024-01-07T14:55:14;0.77;;;0.70;;
67146;SDS011;70072;52.036;5.558;2024-01-07T14:57:40;1.08;;;0.70;;
67146;SDS011;70072;52.036;5.558;2024-01-07T15:00:06;1.60;;;0.30;;
67146;SDS011;70072;52.036;5.558;2024-01-07T15:02:35;0.93;;;0.60;;